Time;durP1;ratioP1;P1;durP2;ratioP2;P2;SDS_P1;SDS_P2;PMS_P1;PMS_P2;Temp;Humidity;BMP_temperature;BMP_pressure;BME280_temperature;BME280_humidity;BME280_pressure;Samples;Min_cycle;Max_cycle;Signal;HPM_P1;HPM_P2
2022/09/09 00:01:51;;;;;;;3.85;1.10;;;;;14.80;93805.00;;;;7391346;19;20171;-78
2022/09/09 00:04:33;;;;;;;3.67;1.15;;;;;14.90;93821.00;;;;7387750;19;20612;-75
2022/09/09 00:07:06;;;;;;;5.57;1.42;;;;;14.60;93807.00;;;;7391215;19;20165;-76
2022/09/09 00:10:01;;;;;;;3.33;1.10;;;;;14.50;93806.00;;;;7388705;19;20615;-75
2022/09/09 00:12:36;;;;;;;5.63;1.27;;;;;14.40;93811.00;;;;7390817;19;20640;-76
2022/09/09 00:15:27;;;;;;;2.05;1.13;;;;;14.30;93813.00;;;;7396046;19;20619;-76
2022/09/09 00:18:29;;;;;;;3.55;1.30;;;;;14.20;93810.00;;;;7398411;19;20155;-78
2022/09/09 00:21:17;;;;;;;3.83;1.00;;;;;14.10;93815.00;;;;7400502;19;20615;-76
2022/09/09 00:23:55;;;;;;;4.85;1.45;;;;;14.10;93812.00;;;;7396016;19;20196;-77
2022/09/09 00:26:54;;;;;;;1.95;1.17;;;;;13.90;93815.00;;;;7399322;19;20609;-77
2022/09/09 00:29:43;;;;;;;4.25;1.20;;;;;13.90;93815.00;;;;7395756;19;20646;-77
2022/09/09 00:32:19;;;;;;;4.15;1.30;;;;;13.80;93815.00;;;;7397092;19;20144;-78
2022/09/09 00:34:58;;;;;;;4.05;1.08;;;;;13.80;93820.00;;;;7397952;19;20184;-78
2022/09/09 00:37:35;;;;;;;3.72;1.50;;;;;13.80;93818.00;;;;7395519;19;20663;-76
2022/09/09 00:40:22;;;;;;;4.55;1.20;;;;;13.80;93817.00;;;;7397171;19;20146;-77
2022/09/09 00:43:27;;;;;;;3.35;1.20;;;;;13.80;93812.00;;;;7397208;19;20643;-77
2022/09/09 00:46:25;;;;;;;2.65;1.15;;;;;13.90;93805.00;;;;7397530;19;20149;-77
2022/09/09 00:49:07;;;;;;;3.13;1.05;;;;;13.90;93806.00;;;;7398409;19;20204;-77
2022/09/09 00:52:01;;;;;;;3.72;1.30;;;;;13.90;93805.00;;;;7397253;19;20133;-77
2022/09/09 00:55:04;;;;;;;7.40;1.40;;;;;13.90;93806.00;;;;7397720;19;20490;-78
2022/09/09 00:57:36;;;;;;;3.90;1.27;;;;;13.80;93818.00;;;;7396245;19;20132;-78
2022/09/09 01:00:25;;;;;;;2.38;1.10;;;;;13.80;93813.00;;;;7396165;19;20148;-77
2022/09/09 01:03:23;;;;;;;2.65;1.10;;;;;13.70;93805.00;;;;7397781;19;20164;-75
2022/09/09 01:06:11;;;;;;;2.65;1.30;;;;;13.60;93812.00;;;;7397780;19;20595;-75
2022/09/09 01:09:22;;;;;;;2.15;1.00;;;;;13.50;93818.00;;;;7399311;19;20612;-76
2022/09/09 01:12:17;;;;;;;2.28;0.90;;;;;13.70;93822.00;;;;7398700;19;20160;-75
2022/09/09 01:15:05;;;;;;;2.85;1.10;;;;;13.70;93830.00;;;;7397382;19;20140;-76
2022/09/09 01:18:09;;;;;;;4.43;1.08;;;;;13.90;93823.00;;;;7397430;19;20217;-75
2022/09/09 01:20:55;;;;;;;4.43;1.23;;;;;14.10;93818.00;;;;7397431;19;20137;-75
2022/09/09 01:23:34;;;;;;;5.10;0.90;;;;;14.40;93816.00;;;;7397269;19;20159;-74
2022/09/09 01:26:23;;;;;;;3.58;1.00;;;;;14.30;93826.00;;;;7397949;19;20130;-74
2022/09/09 01:28:58;;;;;;;4.80;1.15;;;;;14.10;93843.00;;;;7393851;19;20132;-76
2022/09/09 01:31:51;;;;;;;4.50;1.10;;;;;13.80;93845.00;;;;7395898;19;20137;-76
2022/09/09 01:34:38;;;;;;;3.63;1.02;;;;;13.60;93840.00;;;;7399097;19;20200;-76
2022/09/09 01:37:12;;;;;;;4.60;1.20;;;;;13.40;93828.00;;;;7400664;19;20176;-75
2022/09/09 01:39:53;;;;;;;5.40;1.50;;;;;13.20;93806.00;;;;7396221;19;20141;-76
2022/09/09 01:42:27;;;;;;;3.70;1.30;;;;;13.10;93817.00;;;;7395207;19;20205;-76
2022/09/09 01:45:15;;;;;;;3.47;1.30;;;;;12.80;93818.00;;;;7399694;19;20133;-76
2022/09/09 01:47:46;;;;;;;5.25;1.45;;;;;12.70;93825.00;;;;7398094;19;20136;-76
2022/09/09 01:50:23;;;;;;;3.42;1.30;;;;;12.50;93821.00;;;;7398760;19;20129;-78
2022/09/09 01:52:57;;;;;;;4.75;1.23;;;;;12.50;93821.00;;;;7398710;19;20492;-79
2022/09/09 01:55:39;;;;;;;3.95;1.25;;;;;12.30;93819.00;;;;7395183;19;20148;-79
2022/09/09 01:58:35;;;;;;;4.80;1.50;;;;;12.20;93826.00;;;;7395278;19;20148;-79
2022/09/09 02:01:41;;;;;;;3.83;1.20;;;;;12.20;93823.00;;;;7397090;19;20148;-79
2022/09/09 02:04:21;;;;;;;3.28;1.20;;;;;12.20;93837.00;;;;7395128;19;20619;-76
2022/09/09 02:06:57;;;;;;;2.42;1.33;;;;;12.10;93825.00;;;;7396337;19;20144;-77
2022/09/09 02:09:26;;;;;;;4.65;1.60;;;;;12.20;93818.00;;;;7394016;19;20128;-77
2022/09/09 02:12:06;;;;;;;6.13;1.73;;;;;12.30;93813.00;;;;7393783;19;20125;-77
2022/09/09 02:14:48;;;;;;;4.57;1.30;;;;;12.10;93822.00;;;;7394255;19;20144;-77
2022/09/09 02:17:26;;;;;;;2.90;1.63;;;;;12.00;93822.00;;;;7392257;19;20719;-77
2022/09/09 02:20:10;;;;;;;4.15;1.33;;;;;12.00;93820.00;;;;7393394;19;20614;-77
2022/09/09 02:22:43;;;;;;;4.75;1.40;;;;;11.90;93810.00;;;;7394415;19;20607;-77
2022/09/09 02:25:24;;;;;;;6.32;1.63;;;;;11.80;93819.00;;;;7391136;19;20155;-78
2022/09/09 02:27:52;;;;;;;5.97;1.40;;;;;11.80;93811.00;;;;7392908;19;20642;-78
2022/09/09 02:30:20;;;;;;;6.22;1.45;;;;;11.70;93800.00;;;;7390984;19;20611;-78
2022/09/09 02:32:56;;;;;;;4.35;1.40;;;;;11.70;93804.00;;;;7395025;19;20147;-78
2022/09/09 02:35:26;;;;;;;2.65;1.20;;;;;11.70;93802.00;;;;7391833;19;20145;-78
2022/09/09 02:37:59;;;;;;;2.78;1.17;;;;;11.60;93793.00;;;;7392194;19;20479;-77
2022/09/09 02:40:33;;;;;;;2.33;1.13;;;;;11.70;93804.00;;;;7393125;19;20861;-78
2022/09/09 02:43:06;;;;;;;7.32;1.65;;;;;11.60;93797.00;;;;7393224;19;20201;-78
2022/09/09 02:46:10;;;;;;;5.22;1.20;;;;;11.60;93805.00;;;;7391941;19;20144;-77
2022/09/09 02:48:45;;;;;;;2.25;1.20;;;;;11.50;93786.00;;;;7395413;19;20149;-77
2022/09/09 02:51:28;;;;;;;1.88;1.15;;;;;11.50;93792.00;;;;7393111;19;20129;-78
2022/09/09 02:54:31;;;;;;;4.47;1.30;;;;;11.40;93794.00;;;;7391926;19;20140;-78
2022/09/09 02:57:13;;;;;;;2.30;1.15;;;;;11.30;93791.00;;;;7396040;19;20128;-78
2022/09/09 02:59:43;;;;;;;7.22;1.70;;;;;11.30;93794.00;;;;7390398;19;20145;-78
2022/09/09 03:02:18;;;;;;;3.40;1.20;;;;;11.20;93784.00;;;;7392512;19;20151;-78
2022/09/09 03:04:50;;;;;;;3.17;1.48;;;;;11.40;93786.00;;;;7388589;19;20660;-78
2022/09/09 03:07:24;;;;;;;5.53;1.63;;;;;11.30;93788.00;;;;7390744;19;20216;-78
2022/09/09 03:09:54;;;;;;;2.15;1.00;;;;;11.20;93784.00;;;;7392327;19;20148;-77
2022/09/09 03:12:22;;;;;;;3.83;1.38;;;;;11.20;93775.00;;;;7392263;19;20161;-78
2022/09/09 03:14:56;;;;;;;4.45;1.30;;;;;11.10;93776.00;;;;7393753;19;20135;-78
2022/09/09 03:17:24;;;;;;;2.58;1.33;;;;;11.10;93784.00;;;;7390512;19;20740;-78
2022/09/09 03:19:54;;;;;;;1.83;0.80;;;;;11.20;93788.00;;;;7393634;19;20227;-77
2022/09/09 03:22:28;;;;;;;4.55;1.20;;;;;11.10;93790.00;;;;7396549;19;20139;-77
2022/09/09 03:24:58;;;;;;;1.15;1.00;;;;;11.10;93793.00;;;;7393671;19;20448;-78
2022/09/09 03:27:26;;;;;;;3.83;1.00;;;;;11.10;93796.00;;;;7391461;19;20144;-77
2022/09/09 03:30:03;;;;;;;2.08;0.95;;;;;11.10;93785.00;;;;7393663;19;20129;-78
2022/09/09 03:32:33;;;;;;;2.20;0.90;;;;;11.20;93806.00;;;;7396778;19;20129;-77
2022/09/09 03:35:08;;;;;;;2.13;1.05;;;;;11.10;93791.00;;;;7391103;19;20610;-77
2022/09/09 03:37:35;;;;;;;2.47;0.85;;;;;11.20;93793.00;;;;7392393;19;20129;-77
2022/09/09 03:40:03;;;;;;;1.40;1.10;;;;;11.00;93788.00;;;;7394843;19;20144;-77
2022/09/09 03:42:45;;;;;;;1.88;0.90;;;;;11.10;93794.00;;;;7392868;19;20221;-76
2022/09/09 03:45:20;;;;;;;3.83;1.10;;;;;11.10;93800.00;;;;7390204;19;20140;-79
2022/09/09 03:47:54;;;;;;;2.22;1.10;;;;;11.10;93795.00;;;;7392530;19;20155;-78
2022/09/09 03:50:21;;;;;;;1.02;0.70;;;;;11.20;93791.00;;;;7396108;19;20479;-77
2022/09/09 03:52:52;;;;;;;4.07;1.00;;;;;11.20;93789.00;;;;7398876;19;20125;-76
2022/09/09 03:55:25;;;;;;;2.13;0.95;;;;;11.30;93801.00;;;;7396053;19;20660;-76
2022/09/09 03:57:53;;;;;;;1.20;0.73;;;;;11.30;93791.00;;;;7397419;19;20219;-77
2022/09/09 04:00:21;;;;;;;2.20;0.80;;;;;11.40;93795.00;;;;7399568;19;20141;-76
2022/09/09 04:02:57;;;;;;;4.05;0.82;;;;;11.60;93800.00;;;;7399994;19;20158;-76
2022/09/09 04:05:24;;;;;;;3.20;0.95;;;;;11.50;93799.00;;;;7395534;19;20514;-76
2022/09/09 04:07:52;;;;;;;2.35;1.05;;;;;11.50;93785.00;;;;7399620;19;20145;-77
2022/09/09 04:10:26;;;;;;;1.30;0.93;;;;;11.40;93788.00;;;;7398220;19;20159;-77
2022/09/09 04:12:54;;;;;;;1.85;0.75;;;;;11.40;93791.00;;;;7399204;19;20478;-77
2022/09/09 04:15:22;;;;;;;1.42;0.93;;;;;11.40;93792.00;;;;7396109;19;20152;-76
2022/09/09 04:17:56;;;;;;;1.48;0.80;;;;;11.40;93791.00;;;;7401594;19;20128;-77
2022/09/09 04:20:24;;;;;;;4.68;1.02;;;;;11.30;93797.00;;;;7399046;19;20156;-76
2022/09/09 04:22:53;;;;;;;1.85;0.75;;;;;11.20;93796.00;;;;7398563;19;20586;-76
2022/09/09 04:25:28;;;;;;;3.58;1.00;;;;;11.10;93801.00;;;;7395101;19;20157;-77
2022/09/09 04:27:59;;;;;;;2.58;0.88;;;;;11.10;93794.00;;;;7396623;19;20449;-77
2022/09/09 04:30:27;;;;;;;9.38;1.30;;;;;11.10;93799.00;;;;7396352;19;20479;-76
2022/09/09 04:33:01;;;;;;;3.00;0.75;;;;;11.20;93798.00;;;;7397148;19;20143;-77
2022/09/09 04:35:29;;;;;;;1.13;0.70;;;;;11.20;93796.00;;;;7395776;19;20568;-76
2022/09/09 04:37:56;;;;;;;0.98;0.70;;;;;11.20;93792.00;;;;7395859;19;20490;-76
2022/09/09 04:40:33;;;;;;;1.95;0.82;;;;;11.10;93797.00;;;;7396975;19;20740;-75
2022/09/09 04:43:08;;;;;;;1.60;1.00;;;;;11.00;93807.00;;;;7397588;19;20181;-76
2022/09/09 04:45:51;;;;;;;2.03;1.00;;;;;11.10;93803.00;;;;7395244;19;20632;-76
2022/09/09 04:48:19;;;;;;;3.50;1.00;;;;;11.10;93812.00;;;;7397751;19;20138;-77
2022/09/09 04:51:03;;;;;;;3.72;1.20;;;;;11.40;93799.00;;;;7398190;19;21171;-76
2022/09/09 04:53:31;;;;;;;4.40;1.00;;;;;11.40;93810.00;;;;7396074;19;20130;-76
2022/09/09 04:56:11;;;;;;;3.60;1.05;;;;;11.50;93807.00;;;;7398736;19;20586;-76
2022/09/09 04:58:41;;;;;;;5.93;1.40;;;;;11.40;93812.00;;;;7397509;19;20512;-75
2022/09/09 05:01:18;;;;;;;2.90;1.00;;;;;11.50;93813.00;;;;7391386;19;20947;-76
2022/09/09 05:03:46;;;;;;;4.68;1.20;;;;;11.60;93818.00;;;;7393238;19;20172;-76
2022/09/09 05:06:20;;;;;;;2.63;0.90;;;;;11.60;93821.00;;;;7395904;19;20603;-77
2022/09/09 05:08:53;;;;;;;7.85;1.13;;;;;11.70;93826.00;;;;7397429;19;20611;-78
2022/09/09 05:11:24;;;;;;;5.38;1.20;;;;;11.70;93830.00;;;;7393691;19;20599;-78
2022/09/09 05:13:52;;;;;;;4.10;1.00;;;;;11.80;93829.00;;;;7395540;19;20141;-76
2022/09/09 05:16:26;;;;;;;1.70;1.15;;;;;11.70;93816.00;;;;7396291;19;20482;-76
2022/09/09 05:18:54;;;;;;;2.42;0.90;;;;;11.80;93822.00;;;;7397128;19;20167;-75
2022/09/09 05:21:26;;;;;;;2.88;1.10;;;;;11.80;93824.00;;;;7394044;19;20144;-77
2022/09/09 05:24:02;;;;;;;3.00;0.90;;;;;11.80;93828.00;;;;7395538;19;20147;-76
2022/09/09 05:26:32;;;;;;;3.63;0.93;;;;;11.90;93830.00;;;;7393796;19;20159;-76
2022/09/09 05:29:08;;;;;;;3.88;1.13;;;;;11.90;93838.00;;;;7397687;19;20165;-76
2022/09/09 05:31:35;;;;;;;3.38;1.25;;;;;12.00;93842.00;;;;7395014;19;20599;-77
2022/09/09 05:34:03;;;;;;;2.90;0.95;;;;;12.00;93841.00;;;;7396533;19;20148;-77
2022/09/09 05:36:37;;;;;;;1.67;0.98;;;;;12.10;93838.00;;;;7398530;19;20172;-77
2022/09/09 05:39:05;;;;;;;3.97;1.30;;;;;12.10;93833.00;;;;7398280;19;20117;-76
2022/09/09 05:41:35;;;;;;;2.67;1.10;;;;;12.10;93830.00;;;;7396743;19;20133;-78
2022/09/09 05:44:16;;;;;;;2.90;1.10;;;;;12.10;93829.00;;;;7397000;19;20140;-76
2022/09/09 05:46:44;;;;;;;1.50;0.75;;;;;12.00;93834.00;;;;7396613;19;20440;-76
2022/09/09 05:49:19;;;;;;;1.85;0.70;;;;;12.00;93836.00;;;;7396950;19;20131;-77
2022/09/09 05:51:47;;;;;;;1.55;0.65;;;;;12.00;93832.00;;;;7397865;19;20113;-76
2022/09/09 05:54:15;;;;;;;2.28;0.93;;;;;12.00;93832.00;;;;7396431;19;20505;-76
2022/09/09 05:56:51;;;;;;;2.53;1.00;;;;;12.00;93837.00;;;;7395691;19;20582;-76
2022/09/09 05:59:18;;;;;;;2.88;1.23;;;;;12.00;93840.00;;;;7397622;19;20184;-76
2022/09/09 06:01:46;;;;;;;3.17;0.82;;;;;12.10;93840.00;;;;7395984;19;20596;-78
2022/09/09 06:04:22;;;;;;;2.08;0.95;;;;;12.20;93839.00;;;;7396240;19;20140;-77
2022/09/09 06:06:49;;;;;;;2.80;1.27;;;;;12.40;93837.00;;;;7394059;19;20137;-78
2022/09/09 06:09:17;;;;;;;2.30;1.35;;;;;12.60;93829.00;;;;7397798;19;20134;-78
2022/09/09 06:11:57;;;;;;;4.10;1.35;;;;;12.80;93818.00;;;;7396373;19;20140;-77
2022/09/09 06:14:27;;;;;;;4.72;1.10;;;;;13.10;93819.00;;;;7395829;19;20511;-76
2022/09/09 06:17:02;;;;;;;2.75;0.98;;;;;13.40;93819.00;;;;7396647;19;20125;-76
2022/09/09 06:19:32;;;;;;;2.95;0.90;;;;;13.60;93823.00;;;;7395375;19;20599;-76
2022/09/09 06:21:59;;;;;;;1.30;0.70;;;;;13.80;93827.00;;;;7395289;19;20129;-76
2022/09/09 06:24:34;;;;;;;3.17;0.90;;;;;13.90;93825.00;;;;7399099;19;20545;-74
2022/09/09 06:27:01;;;;;;;4.72;1.20;;;;;13.90;93832.00;;;;7393183;19;20129;-75
2022/09/09 06:29:31;;;;;;;1.55;0.88;;;;;14.00;93835.00;;;;7394684;19;20606;-76
2022/09/09 06:32:08;;;;;;;2.22;1.10;;;;;13.90;93836.00;;;;7394418;19;20132;-75
2022/09/09 06:34:36;;;;;;;4.53;1.25;;;;;14.00;93818.00;;;;7395290;19;20133;-75
2022/09/09 06:37:04;;;;;;;5.03;1.40;;;;;14.30;93826.00;;;;7395247;19;20129;-75
2022/09/09 06:39:40;;;;;;;2.63;0.55;;;;;14.50;93827.00;;;;7395376;19;20158;-75
2022/09/09 06:42:23;;;;;;;2.15;1.02;;;;;14.70;93822.00;;;;7393854;19;20610;-76
2022/09/09 06:44:57;;;;;;;2.53;1.15;;;;;15.00;93823.00;;;;7395673;19;20455;-76
2022/09/09 06:47:27;;;;;;;2.75;1.00;;;;;15.10;93822.00;;;;7395112;19;20139;-75
2022/09/09 06:49:56;;;;;;;4.85;1.08;;;;;15.00;93833.00;;;;7394491;19;20149;-78
2022/09/09 06:52:33;;;;;;;2.30;1.10;;;;;14.90;93825.00;;;;7394400;19;20602;-76
2022/09/09 06:55:03;;;;;;;4.05;1.20;;;;;14.90;93825.00;;;;7393733;19;20133;-76
2022/09/09 06:57:38;;;;;;;3.60;1.20;;;;;15.00;93839.00;;;;7396052;19;20127;-77
2022/09/09 07:00:06;;;;;;;3.50;0.75;;;;;15.00;93837.00;;;;7393816;19;20149;-76
2022/09/09 07:02:38;;;;;;;3.08;1.08;;;;;15.20;93827.00;;;;7393813;19;20239;-79
2022/09/09 07:05:13;;;;;;;2.15;0.80;;;;;15.60;93824.00;;;;7393376;19;20638;-75
2022/09/09 07:07:40;;;;;;;3.35;1.00;;;;;16.00;93833.00;;;;7392352;19;20163;-78
2022/09/09 07:10:08;;;;;;;6.40;1.38;;;;;16.40;93825.00;;;;7395040;19;20591;-75
2022/09/09 07:12:41;;;;;;;2.65;1.15;;;;;16.90;93830.00;;;;7392359;19;20197;-75
2022/09/09 07:15:09;;;;;;;2.83;0.88;;;;;16.70;93829.00;;;;7392204;19;20137;-75
2022/09/09 07:17:37;;;;;;;1.88;1.00;;;;;16.20;93836.00;;;;7392600;19;20141;-77
2022/09/09 07:20:12;;;;;;;1.63;0.70;;;;;16.00;93832.00;;;;7390990;19;20136;-76
2022/09/09 07:22:40;;;;;;;1.48;0.77;;;;;15.80;93840.00;;;;7395503;19;20153;-75
2022/09/09 07:25:08;;;;;;;3.03;1.02;;;;;15.70;93827.00;;;;7393144;19;20201;-76
2022/09/09 07:27:44;;;;;;;1.75;0.98;;;;;16.20;93833.00;;;;7399482;19;20139;-76
2022/09/09 07:30:12;;;;;;;3.13;1.10;;;;;15.90;93845.00;;;;7399747;19;20141;-76
2022/09/09 07:32:53;;;;;;;4.45;1.55;;;;;15.60;93842.00;;;;7402550;19;20597;-76
2022/09/09 07:35:27;;;;;;;3.55;1.15;;;;;15.50;93849.00;;;;7397412;19;20609;-75
2022/09/09 07:37:55;;;;;;;3.80;1.10;;;;;15.80;93852.00;;;;7399093;19;20228;-75
2022/09/09 07:40:23;;;;;;;4.28;1.13;;;;;16.00;93848.00;;;;7400297;19;20145;-75
2022/09/09 07:43:06;;;;;;;1.75;1.10;;;;;16.40;93848.00;;;;7401208;19;20539;-76
2022/09/09 07:45:36;;;;;;;2.60;1.27;;;;;16.40;93844.00;;;;7400020;19;20145;-74
2022/09/09 07:48:15;;;;;;;2.85;1.30;;;;;16.40;93839.00;;;;7399727;19;20156;-76
2022/09/09 07:50:47;;;;;;;3.20;1.23;;;;;16.50;93835.00;;;;7399897;19;20153;-75
2022/09/09 07:53:16;;;;;;;2.08;1.10;;;;;16.70;93840.00;;;;7397259;19;20137;-74
2022/09/09 07:55:50;;;;;;;3.40;1.10;;;;;17.00;93847.00;;;;7398990;19;20210;-75
2022/09/09 07:58:20;;;;;;;2.80;1.30;;;;;17.40;93846.00;;;;7398655;19;20151;-74
2022/09/09 08:00:49;;;;;;;3.42;1.10;;;;;17.10;93860.00;;;;7400679;19;20137;-74
2022/09/09 08:03:26;;;;;;;2.83;1.20;;;;;16.40;93868.00;;;;7394453;19;20168;-73
2022/09/09 08:06:01;;;;;;;3.55;1.25;;;;;16.10;93871.00;;;;7395090;19;20953;-73
2022/09/09 08:08:38;;;;;;;5.63;1.50;;;;;15.80;93873.00;;;;7397050;19;20136;-74
2022/09/09 08:11:15;;;;;;;3.83;1.20;;;;;15.50;93869.00;;;;7398748;19;20725;-75
2022/09/09 08:13:51;;;;;;;3.38;1.27;;;;;15.20;93865.00;;;;7396917;19;20184;-75
2022/09/09 08:16:38;;;;;;;3.53;1.17;;;;;15.00;93865.00;;;;7396438;19;20141;-74
2022/09/09 08:19:14;;;;;;;2.92;0.93;;;;;15.10;93859.00;;;;7394064;19;20603;-75
2022/09/09 08:21:44;;;;;;;3.80;1.10;;;;;15.70;93859.00;;;;7394345;19;20178;-75
2022/09/09 08:24:16;;;;;;;5.03;1.20;;;;;16.20;93865.00;;;;7397080;19;20165;-75
2022/09/09 08:26:50;;;;;;;4.43;1.20;;;;;16.70;93869.00;;;;7398613;19;20465;-75
2022/09/09 08:29:18;;;;;;;6.13;1.00;;;;;16.90;93859.00;;;;7396914;19;20152;-74
2022/09/09 08:31:52;;;;;;;3.78;1.02;;;;;17.20;93869.00;;;;7397245;19;20141;-75
2022/09/09 08:34:27;;;;;;;3.60;1.25;;;;;17.60;93867.00;;;;7401314;19;20141;-74
2022/09/09 08:36:55;;;;;;;5.75;1.15;;;;;17.70;93846.00;;;;7400366;19;20132;-74
2022/09/09 08:39:23;;;;;;;5.20;0.88;;;;;17.70;93867.00;;;;7398192;19;20179;-75
2022/09/09 08:42:37;;;;;;;2.10;1.10;;;;;17.40;93862.00;;;;7398445;19;20192;-75
2022/09/09 08:45:26;;;;;;;3.55;1.00;;;;;17.30;93857.00;;;;7400104;19;20133;-72
2022/09/09 08:48:13;;;;;;;2.70;1.10;;;;;17.20;93880.00;;;;7395326;19;20153;-74
2022/09/09 08:50:44;;;;;;;6.18;1.27;;;;;17.00;93863.00;;;;7399884;19;20127;-73
2022/09/09 08:53:26;;;;;;;3.10;1.10;;;;;16.90;93882.00;;;;7396499;19;20136;-72
2022/09/09 08:56:02;;;;;;;3.92;1.10;;;;;17.00;93885.00;;;;7393948;19;20264;-73
2022/09/09 08:58:52;;;;;;;4.65;1.25;;;;;16.70;93875.00;;;;7396548;19;20719;-72
2022/09/09 09:01:49;;;;;;;5.10;1.27;;;;;17.30;93871.00;;;;7394067;19;20358;-74
2022/09/09 09:04:29;;;;;;;3.63;1.17;;;;;17.60;93865.00;;;;7391851;19;20239;-74
2022/09/09 09:07:27;;;;;;;6.57;1.73;;;;;18.30;93860.00;;;;7393999;19;20622;-72
2022/09/09 09:10:32;;;;;;;1.88;1.10;;;;;18.20;93856.00;;;;7395367;19;20193;-73
2022/09/09 09:13:38;;;;;;;4.93;1.10;;;;;18.60;93857.00;;;;7393756;19;20144;-72
2022/09/09 09:16:47;;;;;;;3.33;1.40;;;;;18.60;93841.00;;;;7393647;19;20152;-74
2022/09/09 09:19:16;;;;;;;1.63;0.93;;;;;18.60;93846.00;;;;7391751;19;20141;-73
2022/09/09 09:22:03;;;;;;;4.85;1.52;;;;;18.60;93832.00;;;;7394773;19;20124;-73
2022/09/09 09:24:56;;;;;;;4.28;0.95;;;;;18.70;93849.00;;;;7393630;19;20782;-74
2022/09/09 09:27:49;;;;;;;3.08;1.10;;;;;18.20;93862.00;;;;7394982;19;20592;-75
2022/09/09 09:30:21;;;;;;;2.42;1.25;;;;;17.50;93867.00;;;;7394214;19;20571;-76
2022/09/09 09:33:00;;;;;;;2.85;1.45;;;;;17.50;93865.00;;;;7397703;19;20655;-73
2022/09/09 09:35:28;;;;;;;3.92;1.00;;;;;17.00;93859.00;;;;7392978;19;20494;-73
2022/09/09 09:38:31;;;;;;;12.00;1.63;;;;;16.80;93852.00;;;;7394790;19;20595;-74
2022/09/09 09:41:39;;;;;;;3.88;1.17;;;;;16.90;93861.00;;;;7394825;19;20483;-74
2022/09/09 09:44:37;;;;;;;4.30;0.85;;;;;17.40;93855.00;;;;7393255;19;20205;-75
2022/09/09 09:47:08;;;;;;;5.05;1.20;;;;;17.60;93849.00;;;;7398075;19;20133;-76
2022/09/09 09:49:53;;;;;;;2.67;1.05;;;;;18.20;93833.00;;;;7395023;19;20587;-74
2022/09/09 09:52:26;;;;;;;3.80;0.90;;;;;19.00;93827.00;;;;7393171;19;20204;-75
2022/09/09 09:55:12;;;;;;;3.78;1.20;;;;;19.40;93837.00;;;;7395377;19;20137;-73
2022/09/09 09:57:39;;;;;;;5.43;1.20;;;;;18.90;93817.00;;;;7394384;19;20596;-75
2022/09/09 10:00:20;;;;;;;2.53;1.00;;;;;19.10;93844.00;;;;7394230;19;20148;-75
2022/09/09 10:02:48;;;;;;;3.85;1.23;;;;;19.20;93838.00;;;;7390672;19;20640;-75
2022/09/09 10:05:30;;;;;;;3.35;1.15;;;;;19.10;93835.00;;;;7392262;19;20151;-76
2022/09/09 10:08:12;;;;;;;2.45;1.00;;;;;19.90;93845.00;;;;7393379;19;20200;-75
2022/09/09 10:10:58;;;;;;;3.40;1.08;;;;;19.50;93853.00;;;;7395560;19;20623;-75
2022/09/09 10:13:38;;;;;;;3.40;1.10;;;;;18.80;93846.00;;;;7393212;19;20129;-74
2022/09/09 10:16:34;;;;;;;3.33;1.05;;;;;18.80;93867.00;;;;7395362;19;20205;-76
2022/09/09 10:19:15;;;;;;;2.40;1.13;;;;;18.30;93853.00;;;;7394653;19;20212;-73
2022/09/09 10:22:09;;;;;;;2.63;0.98;;;;;17.80;93857.00;;;;7391995;19;20148;-73
2022/09/09 10:24:44;;;;;;;5.40;1.00;;;;;17.70;93864.00;;;;7396019;19;20148;-74
2022/09/09 10:27:34;;;;;;;1.88;1.13;;;;;17.20;93869.00;;;;7391137;19;20137;-75
2022/09/09 10:30:12;;;;;;;3.80;1.17;;;;;16.90;93896.00;;;;7393393;19;20125;-74
2022/09/09 10:33:03;;;;;;;3.22;1.08;;;;;16.00;93910.00;;;;7391076;19;20140;-76
2022/09/09 10:35:46;;;;;;;5.13;1.45;;;;;14.40;93941.00;;;;7395210;19;20135;-80
2022/09/09 10:38:41;;;;;;;3.85;1.30;;;;;13.60;93960.00;;;;7404725;19;20129;-79
2022/09/09 10:41:26;;;;;;;4.35;1.38;;;;;13.30;93950.00;;;;7396330;19;20144;-80
2022/09/09 10:44:47;;;;;;;1.85;0.95;;;;;12.80;93942.00;;;;7410016;19;20168;-81
2022/09/09 10:48:55;;;;;;;1.45;0.75;;;;;12.80;93947.00;;;;7388628;19;20184;-80
2022/09/09 10:51:44;;;;;;;4.82;1.10;;;;;12.50;93955.00;;;;7393995;19;20170;-79
2022/09/09 10:54:36;;;;;;;6.05;0.90;;;;;12.50;93959.00;;;;7391040;19;20491;-79
2022/09/09 10:57:28;;;;;;;3.88;1.10;;;;;12.60;93976.00;;;;7397382;19;20584;-79
2022/09/09 11:00:03;;;;;;;7.28;1.40;;;;;12.60;93968.00;;;;7389220;19;20208;-78
2022/09/09 11:02:41;;;;;;;3.05;1.60;;;;;12.70;93965.00;;;;7391626;19;20136;-77
2022/09/09 11:05:24;;;;;;;3.88;1.65;;;;;13.00;93961.00;;;;7392967;19;20140;-78
2022/09/09 11:08:10;;;;;;;8.43;1.40;;;;;13.00;93957.00;;;;7389155;19;20151;-76
2022/09/09 11:11:07;;;;;;;8.63;1.70;;;;;13.10;93954.00;;;;7390258;19;21082;-78
2022/09/09 11:13:54;;;;;;;4.25;1.30;;;;;13.10;93942.00;;;;7388523;19;20166;-77
2022/09/09 11:16:45;;;;;;;2.60;1.30;;;;;13.30;93946.00;;;;7390227;19;20144;-79
2022/09/09 11:19:41;;;;;;;3.90;1.48;;;;;13.40;93933.00;;;;7392497;19;20451;-79
2022/09/09 11:22:38;;;;;;;2.92;1.33;;;;;13.70;93911.00;;;;7394019;19;20188;-78
2022/09/09 11:25:20;;;;;;;8.05;1.38;;;;;13.90;93913.00;;;;7400739;19;20140;-79
2022/09/09 11:28:18;;;;;;;4.13;1.23;;;;;14.10;93902.00;;;;7391258;19;20132;-78
2022/09/09 11:40:27;;;;;;;3.42;1.23;;;;;14.70;93893.00;;;;7418658;19;20184;-82
2022/09/09 11:46:04;;;;;;;4.05;1.20;;;;;15.80;93883.00;;;;7370759;19;20243;31
2022/09/09 11:48:48;;;;;;;3.22;1.15;;;;;16.40;93861.00;;;;7390108;19;20491;-84
2022/09/09 11:51:26;;;;;;;1.65;0.80;;;;;16.80;93856.00;;;;7388848;19;20169;-84
2022/09/09 11:54:02;;;;;;;2.83;0.75;;;;;16.60;93847.00;;;;7392703;19;20129;-86
2022/09/09 11:56:32;;;;;;;1.80;0.98;;;;;16.80;93847.00;;;;7393080;19;20160;-86
2022/09/09 11:59:32;;;;;;;4.40;1.25;;;;;16.80;93848.00;;;;7394992;19;20587;-84
2022/09/09 12:02:20;;;;;;;4.10;1.00;;;;;17.30;93850.00;;;;7391594;19;20133;-83
2022/09/09 12:05:13;;;;;;;1.33;0.75;;;;;17.10;93858.00;;;;7393144;19;20157;-84
2022/09/09 12:08:00;;;;;;;1.42;0.73;;;;;16.80;93868.00;;;;7393244;19;20156;-80
2022/09/09 12:10:40;;;;;;;2.35;1.00;;;;;16.70;93865.00;;;;7392049;19;20144;-84
2022/09/09 12:13:23;;;;;;;1.40;0.60;;;;;16.50;93864.00;;;;7400887;19;20147;-83
2022/09/09 12:16:02;;;;;;;3.92;0.90;;;;;16.10;93848.00;;;;7398796;19;20140;-78
2022/09/09 12:18:42;;;;;;;5.80;0.80;;;;;16.70;93861.00;;;;7399365;19;20145;-78
2022/09/09 12:21:39;;;;;;;2.28;0.95;;;;;16.20;93852.00;;;;7397910;19;20137;-77
2022/09/09 12:24:16;;;;;;;2.33;1.00;;;;;16.40;93857.00;;;;7396939;19;20137;-78
2022/09/09 12:27:04;;;;;;;4.15;0.80;;;;;16.40;93845.00;;;;7401275;19;20136;-76
2022/09/09 12:30:17;;;;;;;2.30;0.70;;;;;16.50;93849.00;;;;7397961;19;20156;-75
2022/09/09 12:33:10;;;;;;;1.55;0.93;;;;;16.70;93859.00;;;;7398910;19;20524;-76
2022/09/09 12:35:41;;;;;;;7.10;1.10;;;;;17.30;93850.00;;;;7399276;19;20133;-76
2022/09/09 12:38:29;;;;;;;2.33;0.88;;;;;17.60;93856.00;;;;7398981;19;20145;-73
2022/09/09 12:40:57;;;;;;;0.82;0.45;;;;;17.60;93818.00;;;;7392992;19;20140;-74
2022/09/09 12:43:32;;;;;;;1.63;0.73;;;;;17.40;93838.00;;;;7394059;19;20604;-74
2022/09/09 12:46:08;;;;;;;3.50;1.00;;;;;16.90;93826.00;;;;7395582;19;20129;-74
2022/09/09 12:48:49;;;;;;;1.40;0.80;;;;;16.90;93846.00;;;;7394456;19;20141;-73
2022/09/09 12:51:24;;;;;;;2.25;0.88;;;;;17.10;93839.00;;;;7396741;19;20616;-72
2022/09/09 12:54:00;;;;;;;3.50;0.70;;;;;16.90;93832.00;;;;7397799;19;20230;-73
2022/09/09 12:56:32;;;;;;;5.50;1.15;;;;;17.10;93826.00;;;;7395300;19;20167;-73
2022/09/09 12:59:21;;;;;;;2.53;0.75;;;;;17.50;93831.00;;;;7396508;19;20789;-73
2022/09/09 13:01:57;;;;;;;2.03;1.08;;;;;17.50;93801.00;;;;7400176;19;20157;-74
2022/09/09 13:04:32;;;;;;;2.10;0.77;;;;;17.80;93802.00;;;;7396700;19;20180;-73
2022/09/09 13:07:09;;;;;;;2.88;0.90;;;;;17.80;93801.00;;;;7397509;19;20616;-74
2022/09/09 13:09:45;;;;;;;2.28;0.90;;;;;17.60;93813.00;;;;7394103;19;20595;-71
2022/09/09 13:12:20;;;;;;;1.67;0.80;;;;;17.60;93793.00;;;;7393239;19;20141;-72
2022/09/09 13:14:56;;;;;;;3.08;0.90;;;;;18.10;93797.00;;;;7395857;19;20217;-71
2022/09/09 13:17:29;;;;;;;2.92;0.88;;;;;18.40;93788.00;;;;7395294;19;20236;-71
2022/09/09 13:20:15;;;;;;;2.08;0.80;;;;;18.50;93806.00;;;;7395123;19;20188;-75
2022/09/09 13:22:44;;;;;;;3.80;1.10;;;;;18.20;93803.00;;;;7395982;19;20861;-76
2022/09/09 13:25:25;;;;;;;1.92;0.70;;;;;18.10;93793.00;;;;7396470;19;20145;-77
2022/09/09 13:28:02;;;;;;;2.55;0.80;;;;;18.60;93794.00;;;;7398172;19;20133;-78
2022/09/09 13:30:43;;;;;;;2.65;0.88;;;;;18.70;93794.00;;;;7396626;19;20168;-73